createdAt,value
2023-02-23T00:02:06.823Z,14.20
2023-02-23T00:04:38.586Z,16.40
2023-02-23T00:07:12.294Z,10.45
2023-02-23T00:09:43.353Z,12.73
2023-02-23T00:12:14.234Z,12.35
2023-02-23T00:14:45.125Z,10.90
2023-02-23T00:17:17.793Z,12.43
2023-02-23T00:19:50.781Z,12.35
2023-02-23T00:22:24.203Z,13.82
2023-02-23T00:24:57.724Z,14.27
2023-02-23T00:27:28.517Z,11.05
2023-02-23T00:30:01.832Z,13.07
2023-02-23T00:32:32.888Z,14.00
2023-02-23T00:35:04.836Z,11.73
2023-02-23T00:37:38.415Z,8.30
2023-02-23T00:40:14.097Z,13.57
2023-02-23T00:42:45.396Z,11.95
2023-02-23T00:45:16.948Z,10.77
2023-02-23T00:47:48.979Z,12.30
2023-02-23T00:50:21.267Z,9.23
2023-02-23T00:52:54.702Z,14.45
2023-02-23T00:55:27.853Z,12.38
2023-02-23T00:57:58.777Z,11.93
2023-02-23T01:00:31.854Z,12.32
2023-02-23T01:03:02.819Z,11.40
2023-02-23T01:05:37.384Z,12.85
2023-02-23T01:08:11.081Z,11.10
2023-02-23T01:10:44.564Z,10.35
2023-02-23T01:13:18.295Z,8.30
2023-02-23T01:15:50.086Z,9.70
2023-02-23T01:18:22.341Z,9.15
2023-02-23T01:20:53.928Z,8.65
2023-02-23T01:23:27.374Z,13.80
2023-02-23T01:25:58.194Z,13.10
2023-02-23T01:28:29.027Z,15.95
2023-02-23T01:31:00.042Z,9.63
2023-02-23T01:33:32.185Z,13.15
2023-02-23T01:36:03.340Z,10.52
2023-02-23T01:38:36.976Z,10.77
2023-02-23T01:41:09.355Z,12.27
2023-02-23T01:43:58.621Z,12.07
2023-02-23T01:46:29.941Z,11.77
2023-02-23T01:49:01.236Z,11.40
2023-02-23T01:51:35.321Z,8.18
2023-02-23T01:54:16.176Z,8.38
2023-02-23T01:56:58.457Z,10.35
2023-02-23T01:59:35.798Z,11.35
2023-02-23T02:02:08.005Z,11.25
2023-02-23T02:04:44.962Z,13.57
2023-02-23T02:07:17.910Z,12.38
2023-02-23T02:10:09.794Z,13.70
2023-02-23T02:12:41.660Z,9.27
2023-02-23T02:15:17.766Z,8.63
2023-02-23T02:17:56.782Z,9.05
2023-02-23T02:20:50.680Z,9.00
2023-02-23T02:24:03.022Z,10.73
2023-02-23T02:26:46.734Z,7.32
2023-02-23T02:29:47.921Z,8.55
2023-02-23T02:32:42.382Z,15.85
2023-02-23T02:35:38.342Z,11.18
2023-02-23T02:38:20.691Z,10.50
2023-02-23T02:40:57.052Z,10.85
2023-02-23T02:43:35.139Z,12.57
2023-02-23T02:46:09.251Z,12.75
2023-02-23T02:48:49.107Z,14.20
2023-02-23T02:51:28.830Z,12.68
2023-02-23T02:54:07.445Z,9.98
2023-02-23T02:56:42.070Z,12.82
2023-02-23T02:59:28.884Z,12.75
2023-02-23T03:02:12.888Z,11.70
2023-02-23T03:04:56.117Z,14.98
2023-02-23T03:07:46.984Z,12.38
2023-02-23T03:10:43.169Z,11.38
2023-02-23T03:13:34.375Z,10.48
2023-02-23T03:16:31.256Z,11.82
2023-02-23T03:19:28.974Z,11.27
2023-02-23T03:22:18.352Z,9.07
2023-02-23T03:25:10.551Z,12.30
2023-02-23T03:28:05.132Z,13.13
2023-02-23T03:30:58.953Z,8.48
2023-02-23T03:33:51.248Z,10.73
2023-02-23T03:36:41.206Z,9.07
2023-02-23T03:39:33.200Z,9.68
2023-02-23T03:42:19.526Z,14.57
2023-02-23T03:45:08.000Z,10.55
2023-02-23T03:47:56.142Z,9.52
2023-02-23T03:50:46.303Z,12.65
2023-02-23T03:53:33.263Z,9.38
2023-02-23T03:56:17.492Z,11.07
2023-02-23T03:59:04.529Z,7.13
2023-02-23T04:01:52.841Z,9.77
2023-02-23T04:04:37.559Z,10.32
2023-02-23T04:07:23.813Z,7.85
2023-02-23T04:10:06.937Z,7.55
2023-02-23T04:12:58.408Z,8.38
2023-02-23T04:15:30.877Z,12.07
2023-02-23T04:18:06.460Z,6.70
2023-02-23T04:20:37.537Z,7.25
2023-02-23T04:23:08.379Z,11.18
2023-02-23T04:25:39.238Z,7.72
2023-02-23T04:28:10.169Z,8.20
2023-02-23T04:30:41.120Z,7.00
2023-02-23T04:33:14.597Z,9.45
2023-02-23T04:35:45.469Z,6.22
2023-02-23T04:38:16.321Z,9.70
2023-02-23T04:40:47.129Z,14.27
2023-02-23T04:43:18.490Z,10.68
2023-02-23T04:45:49.613Z,7.65
2023-02-23T04:48:25.254Z,6.57
2023-02-23T04:50:56.501Z,7.15
2023-02-23T04:53:27.498Z,9.00
2023-02-23T04:55:58.356Z,9.80
2023-02-23T04:58:29.387Z,9.32
2023-02-23T05:01:08.300Z,8.45
2023-02-23T05:03:41.665Z,10.52
2023-02-23T05:06:13.004Z,12.80
2023-02-23T05:08:43.910Z,13.60
2023-02-23T05:11:15.590Z,12.07
2023-02-23T05:13:46.358Z,13.02
2023-02-23T05:16:18.455Z,9.65
2023-02-23T05:18:52.380Z,8.63
2023-02-23T05:21:23.732Z,9.10
2023-02-23T05:23:54.876Z,13.73
2023-02-23T05:26:26.097Z,8.52
2023-02-23T05:28:57.370Z,10.30
2023-02-23T05:31:28.699Z,12.57
2023-02-23T05:34:02.334Z,9.13
2023-02-23T05:36:33.622Z,7.93
2023-02-23T05:39:04.357Z,13.02
2023-02-23T05:41:35.138Z,8.48
2023-02-23T05:44:06.004Z,8.05
2023-02-23T05:46:36.941Z,8.88
2023-02-23T05:49:12.599Z,6.63
2023-02-23T05:51:43.499Z,9.07
2023-02-23T05:54:14.480Z,8.27
2023-02-23T05:56:45.270Z,13.00
2023-02-23T05:59:17.597Z,8.75
2023-02-23T06:01:48.567Z,10.20
2023-02-23T06:04:22.108Z,11.32
2023-02-23T06:06:53.023Z,10.15
2023-02-23T06:09:23.766Z,15.15
2023-02-23T06:11:54.522Z,8.55
2023-02-23T06:14:25.328Z,8.85
2023-02-23T06:16:56.178Z,11.30
2023-02-23T06:19:29.647Z,8.23
2023-02-23T06:22:00.601Z,15.07
2023-02-23T06:24:31.458Z,10.68
2023-02-23T06:27:02.291Z,10.32
2023-02-23T06:29:33.176Z,11.82
2023-02-23T06:32:04.134Z,14.70
2023-02-23T06:34:38.522Z,16.30
2023-02-23T06:37:10.006Z,14.43
2023-02-23T06:39:40.762Z,10.30
2023-02-23T06:42:11.628Z,13.43
2023-02-23T06:44:42.615Z,12.73
2023-02-23T06:47:13.543Z,11.98
2023-02-23T06:49:47.969Z,18.58
2023-02-23T06:52:19.015Z,11.93
2023-02-23T06:54:50.325Z,16.55
2023-02-23T06:57:22.022Z,10.85
2023-02-23T06:59:53.591Z,11.55
2023-02-23T07:02:24.466Z,11.10
2023-02-23T07:04:58.915Z,15.43
2023-02-23T07:07:29.781Z,15.32
2023-02-23T07:10:00.646Z,10.38
2023-02-23T07:12:31.443Z,13.40
2023-02-23T07:15:02.246Z,25.08
2023-02-23T07:17:33.082Z,16.05
2023-02-23T07:20:07.659Z,26.50
2023-02-23T07:22:39.984Z,24.70
2023-02-23T07:25:12.263Z,21.17
2023-02-23T07:27:45.620Z,24.88
2023-02-23T07:30:19.639Z,20.60
2023-02-23T07:32:50.558Z,16.15
2023-02-23T07:35:24.221Z,24.67
2023-02-23T07:37:56.044Z,20.67
2023-02-23T07:40:26.898Z,19.20
2023-02-23T07:42:58.446Z,22.30
2023-02-23T07:45:29.711Z,20.75
2023-02-23T07:48:00.701Z,23.25
2023-02-23T07:50:34.164Z,16.10
2023-02-23T07:53:06.376Z,17.42
2023-02-23T07:55:38.629Z,21.58
2023-02-23T07:58:10.190Z,18.92
2023-02-23T08:00:41.013Z,14.40
2023-02-23T08:03:11.945Z,15.63
2023-02-23T08:05:45.437Z,16.80
2023-02-23T08:08:16.326Z,19.15
2023-02-23T08:10:49.867Z,15.73
2023-02-23T08:13:21.242Z,17.73
2023-02-23T08:15:52.114Z,18.60
2023-02-23T08:18:23.027Z,20.55
2023-02-23T08:21:01.709Z,19.60
2023-02-23T08:23:33.860Z,23.15
2023-02-23T08:26:05.335Z,24.70
2023-02-23T08:28:36.143Z,18.90
2023-02-23T08:31:07.002Z,20.90
2023-02-23T08:33:39.053Z,16.92
2023-02-23T08:36:13.265Z,21.30
2023-02-23T08:38:44.115Z,25.75
2023-02-23T08:41:15.064Z,18.40
2023-02-23T08:43:45.929Z,17.02
2023-02-23T08:46:20.504Z,18.50
2023-02-23T08:48:51.521Z,21.05
2023-02-23T08:51:25.009Z,20.50
2023-02-23T08:53:57.417Z,17.20
2023-02-23T08:56:28.702Z,17.38
2023-02-23T08:58:59.650Z,16.23
2023-02-23T09:01:30.467Z,14.70
2023-02-23T09:04:01.346Z,14.77
2023-02-23T09:06:35.897Z,16.92
2023-02-23T09:09:07.725Z,26.38
2023-02-23T09:11:38.733Z,20.02
2023-02-23T09:14:09.734Z,17.50
2023-02-23T09:16:40.634Z,17.60
2023-02-23T09:19:11.675Z,20.10
2023-02-23T09:21:46.466Z,14.63
2023-02-23T09:24:18.783Z,21.85
2023-02-23T09:26:49.685Z,15.23
2023-02-23T09:29:20.579Z,16.55
2023-02-23T09:31:53.199Z,14.85
2023-02-23T09:34:24.125Z,11.48
2023-02-23T09:36:57.641Z,19.63
2023-02-23T09:39:37.744Z,13.95
2023-02-23T09:42:23.489Z,20.77
2023-02-23T09:45:15.144Z,19.10
2023-02-23T09:47:59.983Z,15.63
2023-02-23T09:50:33.586Z,18.83
2023-02-23T09:53:10.824Z,17.75
2023-02-23T09:55:44.174Z,16.48
2023-02-23T09:58:24.125Z,14.55
2023-02-23T10:01:10.028Z,13.45
2023-02-23T10:03:42.942Z,10.68
2023-02-23T10:06:21.564Z,11.27
2023-02-23T10:09:06.626Z,9.23
2023-02-23T10:11:46.885Z,12.43
2023-02-23T10:14:38.226Z,17.67
2023-02-23T10:17:19.444Z,17.23
2023-02-23T10:19:59.618Z,17.50
2023-02-23T10:22:31.680Z,15.90
2023-02-23T10:25:08.945Z,17.80
2023-02-23T10:27:43.929Z,14.45
2023-02-23T10:30:22.824Z,14.30
2023-02-23T10:33:00.815Z,15.80
2023-02-23T10:35:33.952Z,16.48
2023-02-23T10:38:05.623Z,13.98
2023-02-23T10:40:39.130Z,19.30
2023-02-23T10:43:10.310Z,16.20
2023-02-23T10:45:47.683Z,21.90
2023-02-23T10:48:22.303Z,15.07
2023-02-23T10:50:55.554Z,18.65
2023-02-23T10:53:28.416Z,12.68
2023-02-23T10:56:11.225Z,14.07
2023-02-23T10:58:47.444Z,14.60
2023-02-23T11:01:19.547Z,22.02
2023-02-23T11:04:05.494Z,17.58
2023-02-23T11:06:42.560Z,19.17
2023-02-23T11:09:43.222Z,16.55
2023-02-23T11:12:25.634Z,11.75
2023-02-23T11:14:59.033Z,7.70
2023-02-23T11:17:36.616Z,7.95
2023-02-23T11:20:21.143Z,6.45
2023-02-23T11:22:52.472Z,5.15
2023-02-23T11:25:30.828Z,6.45
2023-02-23T11:28:05.545Z,6.70
2023-02-23T11:30:43.865Z,10.13
2023-02-23T11:33:20.311Z,8.02
2023-02-23T11:35:51.184Z,4.88
2023-02-23T11:38:27.858Z,9.05
2023-02-23T11:41:03.750Z,5.05
2023-02-23T11:43:37.202Z,7.25
2023-02-23T11:46:08.446Z,7.72
2023-02-23T11:48:47.238Z,5.43
2023-02-23T11:51:27.848Z,10.77
2023-02-23T11:53:59.262Z,4.00
2023-02-23T11:56:32.476Z,3.70
2023-02-23T11:59:11.229Z,6.78
2023-02-23T12:01:46.837Z,6.10
2023-02-23T12:04:31.149Z,4.95
2023-02-23T12:07:26.954Z,8.38
2023-02-23T12:10:06.809Z,6.15
2023-02-23T12:12:47.465Z,4.97
2023-02-23T12:15:29.518Z,4.28
2023-02-23T12:18:07.626Z,6.03
2023-02-23T12:20:44.262Z,8.52
2023-02-23T12:23:18.924Z,6.75
2023-02-23T12:25:56.237Z,12.43
2023-02-23T12:28:35.724Z,8.88
2023-02-23T12:31:18.205Z,9.32
2023-02-23T12:33:55.660Z,11.02
2023-02-23T12:36:38.729Z,9.00
2023-02-23T12:39:21.339Z,12.93
2023-02-23T12:42:01.204Z,9.20
2023-02-23T12:44:43.332Z,11.07
2023-02-23T12:47:29.941Z,13.32
2023-02-23T12:50:07.501Z,10.10
2023-02-23T12:52:45.175Z,18.13
2023-02-23T12:55:17.573Z,11.23
2023-02-23T12:57:57.875Z,7.65
2023-02-23T13:00:50.518Z,6.75
2023-02-23T13:03:48.388Z,10.77
2023-02-23T13:06:30.897Z,7.60
2023-02-23T13:09:11.505Z,8.52
2023-02-23T13:12:14.935Z,7.82
2023-02-23T13:14:54.340Z,7.30
2023-02-23T13:17:40.868Z,6.85
2023-02-23T13:20:21.691Z,6.43
2023-02-23T13:22:58.513Z,8.57
2023-02-23T13:25:40.369Z,31.98
2023-02-23T13:28:20.100Z,31.02
2023-02-23T13:30:53.165Z,9.90
2023-02-23T13:33:43.674Z,9.23
2023-02-23T13:36:18.408Z,7.43
2023-02-23T13:39:18.524Z,10.68
2023-02-23T13:41:59.120Z,6.70
2023-02-23T13:44:37.320Z,8.95
2023-02-23T13:47:17.293Z,6.72
2023-02-23T13:49:55.738Z,8.52
2023-02-23T13:52:35.998Z,8.77
2023-02-23T13:55:08.762Z,9.57
2023-02-23T13:57:40.649Z,7.75
2023-02-23T14:00:22.267Z,10.00
2023-02-23T14:02:53.900Z,6.72
2023-02-23T14:05:27.900Z,11.00
2023-02-23T14:08:04.766Z,7.25
2023-02-23T14:13:32.280Z,4.65
2023-02-23T14:16:20.611Z,5.72
2023-02-23T14:19:08.564Z,6.50
2023-02-23T14:21:46.101Z,13.55
2023-02-23T14:24:30.694Z,6.57
2023-02-23T14:27:41.672Z,5.40
2023-02-23T14:30:25.925Z,5.80
2023-02-23T14:32:57.232Z,8.82
2023-02-23T14:35:48.662Z,6.07
2023-02-23T14:38:47.420Z,5.07
2023-02-23T14:41:25.692Z,4.47
2023-02-23T14:43:58.884Z,5.30
2023-02-23T14:46:31.073Z,8.52
2023-02-23T14:49:04.367Z,6.15
2023-02-23T14:51:45.203Z,7.38
2023-02-23T14:54:25.686Z,5.22
2023-02-23T14:57:01.075Z,8.90
2023-02-23T14:59:38.956Z,6.22
2023-02-23T15:02:14.849Z,7.63
2023-02-23T15:04:45.876Z,5.70
2023-02-23T15:07:25.445Z,6.20
2023-02-23T15:09:59.102Z,7.57
2023-02-23T15:12:38.273Z,6.40
2023-02-23T15:15:20.988Z,7.05
2023-02-23T15:17:55.446Z,6.45
2023-02-23T15:20:32.879Z,6.38
2023-02-23T15:23:06.487Z,6.93
2023-02-23T15:25:40.468Z,5.95
2023-02-23T15:28:26.596Z,7.03
2023-02-23T15:30:58.788Z,7.30
2023-02-23T15:33:31.283Z,7.13
2023-02-23T15:36:13.014Z,8.95
2023-02-23T15:38:49.311Z,12.20
2023-02-23T15:41:30.784Z,7.45
2023-02-23T15:44:10.143Z,11.73
2023-02-23T15:46:41.942Z,7.60
2023-02-23T15:49:17.612Z,8.90
2023-02-23T15:51:52.369Z,8.98
2023-02-23T15:54:27.242Z,7.93
2023-02-23T15:57:01.095Z,6.80
2023-02-23T15:59:38.827Z,7.20
2023-02-23T16:02:19.609Z,5.78
2023-02-23T16:04:52.995Z,6.95
2023-02-23T16:07:26.628Z,7.55
2023-02-23T16:09:58.479Z,7.25
2023-02-23T16:12:33.915Z,8.43
2023-02-23T16:15:17.175Z,6.43
2023-02-23T16:17:50.347Z,5.85
2023-02-23T16:20:29.272Z,9.18
2023-02-23T16:23:02.749Z,8.68
2023-02-23T16:25:35.452Z,8.93
2023-02-23T16:28:10.852Z,8.35
2023-02-23T16:30:57.378Z,9.93
2023-02-23T16:33:29.788Z,8.35
2023-02-23T16:36:19.754Z,11.07
2023-02-23T16:39:00.829Z,9.15
2023-02-23T16:41:33.875Z,9.00
2023-02-23T16:44:06.617Z,9.57
2023-02-23T16:46:59.882Z,9.00
2023-02-23T16:49:31.538Z,9.60
2023-02-23T16:52:05.181Z,13.35
2023-02-23T16:54:36.132Z,13.55
2023-02-23T16:57:08.665Z,11.95
2023-02-23T16:59:39.446Z,11.90
2023-02-23T17:02:14.411Z,13.57
2023-02-23T17:04:49.123Z,15.65
2023-02-23T17:07:22.888Z,18.25
2023-02-23T17:09:54.791Z,14.75
2023-02-23T17:12:25.739Z,20.63
2023-02-23T17:15:04.568Z,22.17
2023-02-23T17:17:41.187Z,28.05
2023-02-23T17:20:15.916Z,25.25
2023-02-23T17:22:46.958Z,20.75
2023-02-23T17:25:17.848Z,21.63
2023-02-23T17:28:06.587Z,27.13
2023-02-23T17:30:42.904Z,24.90
2023-02-23T17:33:17.534Z,24.23
2023-02-23T17:35:49.082Z,25.20
2023-02-23T17:38:21.798Z,22.17
2023-02-23T17:40:52.706Z,24.23
2023-02-23T17:43:24.212Z,23.55
2023-02-23T17:45:57.673Z,26.15
2023-02-23T17:48:34.847Z,25.38
2023-02-23T17:51:09.221Z,27.25
2023-02-23T17:53:43.608Z,23.20
2023-02-23T17:56:16.286Z,24.92
2023-02-23T17:58:47.257Z,25.30
2023-02-23T18:01:18.344Z,25.02
2023-02-23T18:03:52.302Z,24.65
2023-02-23T18:06:23.097Z,28.05
2023-02-23T18:08:53.912Z,27.08
2023-02-23T18:11:25.172Z,27.85
2023-02-23T18:13:56.440Z,28.33
2023-02-23T18:16:27.400Z,29.15
2023-02-23T18:19:01.058Z,23.30
2023-02-23T18:21:34.769Z,24.00
2023-02-23T18:24:06.118Z,21.58
2023-02-23T18:26:37.049Z,24.65
2023-02-23T18:29:08.230Z,27.08
2023-02-23T18:31:39.252Z,23.63
2023-02-23T18:34:13.811Z,27.38
2023-02-23T18:36:45.418Z,25.20
2023-02-23T18:39:17.064Z,25.58
2023-02-23T18:41:48.054Z,27.08
2023-02-23T18:44:22.141Z,27.55
2023-02-23T18:46:55.164Z,25.85
2023-02-23T18:49:29.092Z,25.33
2023-02-23T18:52:00.499Z,26.70
2023-02-23T18:54:31.779Z,24.35
2023-02-23T18:57:02.775Z,24.05
2023-02-23T18:59:33.665Z,24.65
2023-02-23T19:02:04.688Z,25.42
2023-02-23T19:04:39.557Z,26.45
2023-02-23T19:07:10.467Z,24.95
2023-02-23T19:09:42.336Z,26.05
2023-02-23T19:12:14.831Z,23.05
2023-02-23T19:14:49.705Z,27.08
2023-02-23T19:17:20.892Z,25.17
2023-02-23T19:19:57.787Z,27.42
2023-02-23T19:22:29.597Z,22.80
2023-02-23T19:25:00.423Z,25.05
2023-02-23T19:27:31.392Z,31.00
2023-02-23T19:30:02.186Z,25.52
2023-02-23T19:32:33.304Z,25.83
2023-02-23T19:35:07.277Z,24.63
2023-02-23T19:37:38.944Z,25.55
2023-02-23T19:40:14.196Z,25.17
2023-02-23T19:42:46.254Z,24.88
2023-02-23T19:45:17.885Z,24.55
2023-02-23T19:47:48.726Z,25.02
2023-02-23T19:50:22.520Z,23.08
2023-02-23T19:52:54.771Z,22.20
2023-02-23T19:55:25.708Z,25.25
2023-02-23T19:57:57.638Z,22.85
2023-02-23T20:00:28.833Z,26.73
2023-02-23T20:03:06.428Z,24.38
2023-02-23T20:05:44.534Z,26.35
2023-02-23T20:08:19.504Z,22.13
2023-02-23T20:10:50.767Z,22.98
2023-02-23T20:13:23.626Z,26.15
2023-02-23T20:16:02.645Z,23.63
2023-02-23T20:18:33.706Z,22.92
2023-02-23T20:21:11.278Z,28.88
2023-02-23T20:23:42.507Z,26.42
2023-02-23T20:26:16.208Z,24.85
2023-02-23T20:28:47.474Z,27.50
2023-02-23T20:31:21.261Z,25.33
2023-02-23T20:33:53.130Z,23.23
2023-02-23T20:36:27.868Z,24.33
2023-02-23T20:38:58.667Z,25.73
2023-02-23T20:41:31.788Z,24.17
2023-02-23T20:44:03.447Z,25.90
2023-02-23T20:46:34.350Z,24.30
2023-02-23T20:49:05.202Z,25.77
2023-02-23T20:51:38.820Z,22.80
2023-02-23T20:54:11.330Z,23.20
2023-02-23T20:56:43.869Z,27.50
2023-02-23T20:59:16.205Z,22.52
2023-02-23T21:01:47.229Z,24.50
2023-02-23T21:04:19.051Z,23.50
2023-02-23T21:06:52.662Z,23.23
2023-02-23T21:09:24.702Z,23.83
2023-02-23T21:11:55.699Z,24.52
2023-02-23T21:14:26.645Z,23.85
2023-02-23T21:16:57.556Z,22.88
2023-02-23T21:19:28.377Z,23.85
2023-02-23T21:22:03.051Z,21.63
2023-02-23T21:24:34.983Z,20.88
2023-02-23T21:27:06.579Z,19.48
2023-02-23T21:29:37.430Z,20.60
2023-02-23T21:32:09.104Z,20.63
2023-02-23T21:34:40.405Z,19.27
2023-02-23T21:37:13.859Z,23.40
2023-02-23T21:39:46.939Z,20.92
2023-02-23T21:42:23.103Z,21.88
2023-02-23T21:47:25.756Z,19.70
2023-02-23T21:49:56.755Z,18.77
2023-02-23T21:52:31.627Z,18.92
2023-02-23T21:55:07.834Z,19.33
2023-02-23T21:57:41.712Z,18.77
2023-02-23T22:00:19.222Z,20.15
2023-02-23T22:02:50.325Z,18.17
2023-02-23T22:05:23.647Z,20.15
2023-02-23T22:07:58.800Z,19.67
2023-02-23T22:10:29.621Z,17.88
2023-02-23T22:13:01.112Z,14.93
2023-02-23T22:15:32.038Z,19.20
2023-02-23T22:18:03.086Z,13.98
2023-02-23T22:20:34.020Z,16.48
2023-02-23T22:23:07.687Z,14.98
2023-02-23T22:25:38.551Z,16.13
2023-02-23T22:28:10.868Z,14.45
2023-02-23T22:30:44.782Z,17.10
2023-02-23T22:33:15.905Z,16.75
2023-02-23T22:35:46.869Z,16.13
2023-02-23T22:38:21.181Z,17.23
2023-02-23T22:40:52.045Z,19.05
2023-02-23T22:43:23.049Z,18.85
2023-02-23T22:45:57.514Z,17.92
2023-02-23T22:48:29.092Z,20.02
2023-02-23T22:51:00.487Z,22.15
2023-02-23T22:53:37.865Z,21.67
2023-02-23T22:56:09.494Z,22.98
2023-02-23T22:58:42.432Z,21.75
2023-02-23T23:01:14.876Z,21.67
2023-02-23T23:03:47.772Z,21.98
2023-02-23T23:06:22.408Z,23.33
2023-02-23T23:08:58.768Z,23.92
2023-02-23T23:11:31.102Z,22.42
2023-02-23T23:14:07.110Z,24.23
2023-02-23T23:16:40.814Z,21.40
2023-02-23T23:19:13.249Z,20.23
2023-02-23T23:21:46.133Z,19.75
2023-02-23T23:24:19.584Z,21.38
2023-02-23T23:26:55.413Z,20.20
2023-02-23T23:29:30.739Z,19.40
2023-02-23T23:32:02.902Z,21.60
2023-02-23T23:34:33.927Z,19.38
2023-02-23T23:37:05.065Z,20.38
2023-02-23T23:39:38.559Z,22.65
2023-02-23T23:42:09.435Z,20.55
2023-02-23T23:44:40.448Z,21.90
2023-02-23T23:47:11.530Z,22.13
2023-02-23T23:49:42.552Z,21.52
2023-02-23T23:52:18.012Z,19.08
2023-02-23T23:54:52.083Z,19.70
2023-02-23T23:57:22.942Z,19.88
2023-02-23T23:59:54.004Z,21.92
